Richville, Arizona
Current Conditions -  °F | °C
As of 2:54 AM on Friday 28 Nov 2014 (Local Time) from KSJN Reporting Station
Clear Clear  
Wind Chill: 28°   Ceiling: Unl
Heat Index: 28°   Visibility: 10mi
Dew Point: 15°   Wind: 0mph
Humidity: 58%   Direction: NA
Pressure: 30.29"   Gusts: NA
Location:  34.4981°N, 109.241°W
Report Text: KSJN 280954Z AUTO 00000KT 10SM CLR M02/M09 A3029 RMK AO2 SLP223 T10221094
Loading
Personal Weather Stations






























Interactive Weather Map New forecast layout! Learn more

10-Day Weather Forecast

Advertisements
Track Severe Weather on mobile